sensor_id;sensor_type;location;lat;lon;timestamp;P1;durP1;ratioP1;P2;durP2;ratioP2
4210;SDS011;2119;48.828;12.396;2022-08-25T00:00:24;7.30;;;6.70;;
4210;SDS011;2119;48.828;12.396;2022-08-25T00:05:25;7.57;;;6.37;;
4210;SDS011;2119;48.828;12.396;2022-08-25T00:10:26;6.70;;;6.20;;
4210;SDS011;2119;48.828;12.396;2022-08-25T00:15:28;6.57;;;5.97;;
4210;SDS011;2119;48.828;12.396;2022-08-25T00:20:31;6.77;;;6.27;;
4210;SDS011;2119;48.828;12.396;2022-08-25T00:25:31;7.43;;;6.30;;
4210;SDS011;2119;48.828;12.396;2022-08-25T00:30:32;6.37;;;5.63;;
4210;SDS011;2119;48.828;12.396;2022-08-25T00:35:32;6.35;;;5.85;;
4210;SDS011;2119;48.828;12.396;2022-08-25T00:40:32;6.45;;;5.95;;
4210;SDS011;2119;48.828;12.396;2022-08-25T00:45:33;6.73;;;6.20;;
4210;SDS011;2119;48.828;12.396;2022-08-25T00:50:34;6.93;;;6.10;;
4210;SDS011;2119;48.828;12.396;2022-08-25T00:55:35;6.20;;;5.73;;
4210;SDS011;2119;48.828;12.396;2022-08-25T01:00:38;6.53;;;6.03;;
4210;SDS011;2119;48.828;12.396;2022-08-25T01:05:39;6.80;;;6.20;;
4210;SDS011;2119;48.828;12.396;2022-08-25T01:10:40;7.93;;;5.80;;
4210;SDS011;2119;48.828;12.396;2022-08-25T01:15:41;5.90;;;5.40;;
4210;SDS011;2119;48.828;12.396;2022-08-25T01:20:42;6.38;;;5.93;;
4210;SDS011;2119;48.828;12.396;2022-08-25T01:26:00;6.10;;;5.70;;
4210;SDS011;2119;48.828;12.396;2022-08-25T01:31:02;10.30;;;6.53;;
4210;SDS011;2119;48.828;12.396;2022-08-25T01:36:03;6.00;;;5.50;;
4210;SDS011;2119;48.828;12.396;2022-08-25T01:41:04;6.47;;;5.83;;
4210;SDS011;2119;48.828;12.396;2022-08-25T01:46:04;6.05;;;5.55;;
4210;SDS011;2119;48.828;12.396;2022-08-25T01:51:05;6.28;;;5.80;;
4210;SDS011;2119;48.828;12.396;2022-08-25T01:56:12;6.43;;;5.90;;
4210;SDS011;2119;48.828;12.396;2022-08-25T02:01:15;6.50;;;6.00;;
4210;SDS011;2119;48.828;12.396;2022-08-25T02:06:26;6.03;;;5.63;;
4210;SDS011;2119;48.828;12.396;2022-08-25T02:11:27;7.10;;;4.93;;
4210;SDS011;2119;48.828;12.396;2022-08-25T02:16:28;5.93;;;5.33;;
4210;SDS011;2119;48.828;12.396;2022-08-25T02:21:29;6.00;;;5.50;;
4210;SDS011;2119;48.828;12.396;2022-08-25T02:26:31;6.23;;;5.63;;
4210;SDS011;2119;48.828;12.396;2022-08-25T02:31:31;6.33;;;5.83;;
4210;SDS011;2119;48.828;12.396;2022-08-25T02:36:31;6.28;;;5.88;;
4210;SDS011;2119;48.828;12.396;2022-08-25T02:41:31;6.83;;;5.97;;
4210;SDS011;2119;48.828;12.396;2022-08-25T02:46:32;6.20;;;5.60;;
4210;SDS011;2119;48.828;12.396;2022-08-25T02:51:33;9.07;;;6.00;;
4210;SDS011;2119;48.828;12.396;2022-08-25T02:56:33;5.40;;;5.00;;
4210;SDS011;2119;48.828;12.396;2022-08-25T03:01:34;6.70;;;6.20;;
4210;SDS011;2119;48.828;12.396;2022-08-25T03:06:35;8.00;;;6.10;;
4210;SDS011;2119;48.828;12.396;2022-08-25T03:11:35;7.83;;;5.70;;
4210;SDS011;2119;48.828;12.396;2022-08-25T03:16:37;6.80;;;6.20;;
4210;SDS011;2119;48.828;12.396;2022-08-25T03:21:37;7.70;;;6.90;;
4210;SDS011;2119;48.828;12.396;2022-08-25T03:26:38;10.40;;;6.90;;
4210;SDS011;2119;48.828;12.396;2022-08-25T03:31:54;6.80;;;6.20;;
4210;SDS011;2119;48.828;12.396;2022-08-25T03:36:58;7.47;;;6.73;;
4210;SDS011;2119;48.828;12.396;2022-08-25T03:41:58;7.60;;;6.80;;
4210;SDS011;2119;48.828;12.396;2022-08-25T03:46:59;8.50;;;6.07;;
4210;SDS011;2119;48.828;12.396;2022-08-25T03:52:01;8.20;;;7.20;;
4210;SDS011;2119;48.828;12.396;2022-08-25T03:57:01;6.23;;;5.67;;
4210;SDS011;2119;48.828;12.396;2022-08-25T04:02:03;7.37;;;6.77;;
4210;SDS011;2119;48.828;12.396;2022-08-25T04:07:04;7.00;;;6.40;;
4210;SDS011;2119;48.828;12.396;2022-08-25T04:12:04;7.00;;;6.40;;
4210;SDS011;2119;48.828;12.396;2022-08-25T04:17:05;6.70;;;6.10;;
4210;SDS011;2119;48.828;12.396;2022-08-25T04:22:05;6.50;;;5.90;;
4210;SDS011;2119;48.828;12.396;2022-08-25T04:27:06;9.48;;;6.80;;
4210;SDS011;2119;48.828;12.396;2022-08-25T04:32:06;8.70;;;7.00;;
4210;SDS011;2119;48.828;12.396;2022-08-25T04:37:06;7.20;;;6.60;;
4210;SDS011;2119;48.828;12.396;2022-08-25T04:42:07;7.43;;;6.67;;
4210;SDS011;2119;48.828;12.396;2022-08-25T04:47:08;9.25;;;7.00;;
4210;SDS011;2119;48.828;12.396;2022-08-25T04:52:09;7.10;;;6.40;;
4210;SDS011;2119;48.828;12.396;2022-08-25T04:57:17;7.07;;;6.30;;
4210;SDS011;2119;48.828;12.396;2022-08-25T05:02:19;7.90;;;7.20;;
4210;SDS011;2119;48.828;12.396;2022-08-25T05:07:19;9.43;;;5.90;;
4210;SDS011;2119;48.828;12.396;2022-08-25T05:12:24;8.02;;;7.22;;
4210;SDS011;2119;48.828;12.396;2022-08-25T05:17:30;11.40;;;7.83;;
4210;SDS011;2119;48.828;12.396;2022-08-25T05:22:33;9.43;;;8.50;;
4210;SDS011;2119;48.828;12.396;2022-08-25T05:27:33;8.90;;;8.07;;
4210;SDS011;2119;48.828;12.396;2022-08-25T05:32:37;9.00;;;8.03;;
4210;SDS011;2119;48.828;12.396;2022-08-25T05:37:37;9.80;;;8.80;;
4210;SDS011;2119;48.828;12.396;2022-08-25T05:42:39;9.40;;;8.20;;
4210;SDS011;2119;48.828;12.396;2022-08-25T05:47:39;9.50;;;8.50;;
4210;SDS011;2119;48.828;12.396;2022-08-25T05:52:41;9.67;;;8.70;;
4210;SDS011;2119;48.828;12.396;2022-08-25T05:57:42;11.20;;;9.77;;
4210;SDS011;2119;48.828;12.396;2022-08-25T06:02:43;12.70;;;10.70;;
4210;SDS011;2119;48.828;12.396;2022-08-25T06:07:47;12.57;;;11.13;;
4210;SDS011;2119;48.828;12.396;2022-08-25T06:12:47;12.97;;;11.57;;
4210;SDS011;2119;48.828;12.396;2022-08-25T06:17:49;11.43;;;10.33;;
4210;SDS011;2119;48.828;12.396;2022-08-25T06:22:51;12.80;;;10.90;;
4210;SDS011;2119;48.828;12.396;2022-08-25T06:27:52;12.77;;;11.47;;
4210;SDS011;2119;48.828;12.396;2022-08-25T06:32:53;14.23;;;11.37;;
4210;SDS011;2119;48.828;12.396;2022-08-25T06:37:53;13.80;;;11.90;;
4210;SDS011;2119;48.828;12.396;2022-08-25T06:42:57;13.87;;;11.37;;
4210;SDS011;2119;48.828;12.396;2022-08-25T06:47:57;13.10;;;11.80;;
4210;SDS011;2119;48.828;12.396;2022-08-25T06:52:59;13.23;;;11.77;;
4210;SDS011;2119;48.828;12.396;2022-08-25T06:57:59;14.77;;;11.50;;
4210;SDS011;2119;48.828;12.396;2022-08-25T07:03:00;13.17;;;11.77;;
4210;SDS011;2119;48.828;12.396;2022-08-25T07:08:00;13.03;;;11.80;;
4210;SDS011;2119;48.828;12.396;2022-08-25T07:13:02;12.20;;;11.00;;
4210;SDS011;2119;48.828;12.396;2022-08-25T07:18:02;15.20;;;13.03;;
4210;SDS011;2119;48.828;12.396;2022-08-25T07:23:02;12.50;;;11.40;;
4210;SDS011;2119;48.828;12.396;2022-08-25T07:28:02;12.37;;;11.27;;
4210;SDS011;2119;48.828;12.396;2022-08-25T07:33:03;12.53;;;11.40;;
4210;SDS011;2119;48.828;12.396;2022-08-25T07:38:04;13.10;;;11.80;;
4210;SDS011;2119;48.828;12.396;2022-08-25T07:43:06;12.33;;;11.03;;
4210;SDS011;2119;48.828;12.396;2022-08-25T07:48:10;12.10;;;11.00;;
4210;SDS011;2119;48.828;12.396;2022-08-25T07:53:11;14.20;;;11.93;;
4210;SDS011;2119;48.828;12.396;2022-08-25T07:58:14;14.87;;;13.47;;
4210;SDS011;2119;48.828;12.396;2022-08-25T08:03:14;17.73;;;11.93;;
4210;SDS011;2119;48.828;12.396;2022-08-25T08:08:15;14.77;;;11.50;;
4210;SDS011;2119;48.828;12.396;2022-08-25T08:13:16;13.67;;;11.17;;
4210;SDS011;2119;48.828;12.396;2022-08-25T08:18:17;13.50;;;11.60;;
4210;SDS011;2119;48.828;12.396;2022-08-25T08:23:18;12.10;;;10.80;;
4210;SDS011;2119;48.828;12.396;2022-08-25T08:28:18;14.53;;;12.93;;
4210;SDS011;2119;48.828;12.396;2022-08-25T08:33:19;17.23;;;12.93;;
4210;SDS011;2119;48.828;12.396;2022-08-25T08:38:20;14.50;;;12.43;;
4210;SDS011;2119;48.828;12.396;2022-08-25T08:43:21;24.17;;;13.00;;
4210;SDS011;2119;48.828;12.396;2022-08-25T08:48:39;23.10;;;14.23;;
4210;SDS011;2119;48.828;12.396;2022-08-25T08:58:55;19.80;;;13.80;;
4210;SDS011;2119;48.828;12.396;2022-08-25T09:09:33;20.10;;;13.67;;
4210;SDS011;2119;48.828;12.396;2022-08-25T09:14:38;17.43;;;12.70;;
4210;SDS011;2119;48.828;12.396;2022-08-25T09:35:01;28.43;;;13.63;;
4210;SDS011;2119;48.828;12.396;2022-08-25T09:40:02;18.53;;;14.30;;
4210;SDS011;2119;48.828;12.396;2022-08-25T09:45:02;14.50;;;11.77;;
4210;SDS011;2119;48.828;12.396;2022-08-25T09:50:03;35.23;;;13.83;;
4210;SDS011;2119;48.828;12.396;2022-08-25T10:00:27;19.33;;;13.33;;
4210;SDS011;2119;48.828;12.396;2022-08-25T10:05:27;17.93;;;13.10;;
4210;SDS011;2119;48.828;12.396;2022-08-25T10:10:31;17.30;;;12.37;;
4210;SDS011;2119;48.828;12.396;2022-08-25T10:15:34;18.83;;;12.70;;
4210;SDS011;2119;48.828;12.396;2022-08-25T10:20:34;15.40;;;11.80;;
4210;SDS011;2119;48.828;12.396;2022-08-25T10:25:35;24.20;;;12.30;;
4210;SDS011;2119;48.828;12.396;2022-08-25T10:30:49;19.23;;;12.00;;
4210;SDS011;2119;48.828;12.396;2022-08-25T10:41:16;25.20;;;12.13;;
4210;SDS011;2119;48.828;12.396;2022-08-25T10:52:07;22.23;;;12.13;;
4210;SDS011;2119;48.828;12.396;2022-08-25T10:56:42;25.43;;;11.80;;
4210;SDS011;2119;48.828;12.396;2022-08-25T11:07:03;23.27;;;12.67;;
4210;SDS011;2119;48.828;12.396;2022-08-25T11:12:10;25.30;;;12.60;;
4210;SDS011;2119;48.828;12.396;2022-08-25T11:17:23;16.60;;;12.10;;
4210;SDS011;2119;48.828;12.396;2022-08-25T11:22:39;16.67;;;11.20;;
4210;SDS011;2119;48.828;12.396;2022-08-25T11:32:48;19.73;;;11.77;;
4210;SDS011;2119;48.828;12.396;2022-08-25T11:43:12;19.07;;;12.10;;
4210;SDS011;2119;48.828;12.396;2022-08-25T11:53:18;21.07;;;10.80;;
4210;SDS011;2119;48.828;12.396;2022-08-25T11:58:31;14.47;;;10.07;;
4210;SDS011;2119;48.828;12.396;2022-08-25T12:13:53;12.57;;;11.37;;
4210;SDS011;2119;48.828;12.396;2022-08-25T12:24:42;15.23;;;10.87;;
4210;SDS011;2119;48.828;12.396;2022-08-25T12:29:49;17.33;;;11.77;;
4210;SDS011;2119;48.828;12.396;2022-08-25T12:40:00;18.00;;;10.67;;
4210;SDS011;2119;48.828;12.396;2022-08-25T12:55:26;15.00;;;11.10;;
4210;SDS011;2119;48.828;12.396;2022-08-25T13:00:28;17.87;;;10.77;;
4210;SDS011;2119;48.828;12.396;2022-08-25T13:10:45;20.43;;;11.37;;
4210;SDS011;2119;48.828;12.396;2022-08-25T13:15:56;20.63;;;10.50;;
4210;SDS011;2119;48.828;12.396;2022-08-25T13:21:04;15.80;;;10.90;;
4210;SDS011;2119;48.828;12.396;2022-08-25T13:26:06;17.47;;;10.80;;
4210;SDS011;2119;48.828;12.396;2022-08-25T13:31:08;20.63;;;10.37;;
4210;SDS011;2119;48.828;12.396;2022-08-25T13:36:14;27.83;;;11.57;;
4210;SDS011;2119;48.828;12.396;2022-08-25T13:41:34;15.00;;;10.47;;
4210;SDS011;2119;48.828;12.396;2022-08-25T13:46:34;19.43;;;10.40;;
4210;SDS011;2119;48.828;12.396;2022-08-25T13:51:35;19.23;;;10.77;;
4210;SDS011;2119;48.828;12.396;2022-08-25T13:56:39;10.23;;;9.20;;
4210;SDS011;2119;48.828;12.396;2022-08-25T14:01:44;15.27;;;10.63;;
4210;SDS011;2119;48.828;12.396;2022-08-25T14:06:48;18.43;;;10.90;;
4210;SDS011;2119;48.828;12.396;2022-08-25T14:11:55;17.33;;;9.80;;
4210;SDS011;2119;48.828;12.396;2022-08-25T14:17:00;17.43;;;11.30;;
4210;SDS011;2119;48.828;12.396;2022-08-25T14:22:01;26.53;;;11.73;;
4210;SDS011;2119;48.828;12.396;2022-08-25T14:27:02;12.27;;;10.90;;
4210;SDS011;2119;48.828;12.396;2022-08-25T14:32:02;16.63;;;10.57;;
4210;SDS011;2119;48.828;12.396;2022-08-25T14:37:11;13.63;;;10.63;;
4210;SDS011;2119;48.828;12.396;2022-08-25T14:42:12;19.93;;;10.10;;
4210;SDS011;2119;48.828;12.396;2022-08-25T14:47:13;17.97;;;10.37;;
4210;SDS011;2119;48.828;12.396;2022-08-25T14:52:21;16.10;;;9.50;;
4210;SDS011;2119;48.828;12.396;2022-08-25T14:57:23;25.33;;;11.13;;
4210;SDS011;2119;48.828;12.396;2022-08-25T15:02:23;11.47;;;9.33;;
4210;SDS011;2119;48.828;12.396;2022-08-25T15:07:24;23.83;;;10.30;;
4210;SDS011;2119;48.828;12.396;2022-08-25T15:12:44;14.20;;;9.53;;
4210;SDS011;2119;48.828;12.396;2022-08-25T15:17:44;20.03;;;10.77;;
4210;SDS011;2119;48.828;12.396;2022-08-25T15:22:46;13.77;;;10.10;;
4210;SDS011;2119;48.828;12.396;2022-08-25T15:27:47;19.30;;;10.07;;
4210;SDS011;2119;48.828;12.396;2022-08-25T15:32:47;18.47;;;11.33;;
4210;SDS011;2119;48.828;12.396;2022-08-25T15:37:48;17.60;;;10.93;;
4210;SDS011;2119;48.828;12.396;2022-08-25T15:42:48;15.10;;;10.20;;
4210;SDS011;2119;48.828;12.396;2022-08-25T15:47:48;20.60;;;10.50;;
4210;SDS011;2119;48.828;12.396;2022-08-25T15:52:50;22.07;;;12.20;;
4210;SDS011;2119;48.828;12.396;2022-08-25T15:57:50;15.30;;;10.67;;
4210;SDS011;2119;48.828;12.396;2022-08-25T16:02:50;20.47;;;10.97;;
4210;SDS011;2119;48.828;12.396;2022-08-25T16:07:51;17.53;;;10.70;;
4210;SDS011;2119;48.828;12.396;2022-08-25T16:12:51;17.53;;;10.37;;
4210;SDS011;2119;48.828;12.396;2022-08-25T16:17:51;18.75;;;10.40;;
4210;SDS011;2119;48.828;12.396;2022-08-25T16:22:58;17.70;;;9.90;;
4210;SDS011;2119;48.828;12.396;2022-08-25T16:27:59;23.10;;;10.20;;
4210;SDS011;2119;48.828;12.396;2022-08-25T16:33:00;15.63;;;9.60;;
4210;SDS011;2119;48.828;12.396;2022-08-25T16:38:00;17.50;;;10.60;;
4210;SDS011;2119;48.828;12.396;2022-08-25T16:43:01;21.67;;;10.90;;
4210;SDS011;2119;48.828;12.396;2022-08-25T16:48:02;14.13;;;10.00;;
4210;SDS011;2119;48.828;12.396;2022-08-25T16:53:05;16.00;;;11.00;;
4210;SDS011;2119;48.828;12.396;2022-08-25T16:58:24;17.93;;;11.30;;
4210;SDS011;2119;48.828;12.396;2022-08-25T17:03:24;17.57;;;11.10;;
4210;SDS011;2119;48.828;12.396;2022-08-25T17:08:24;17.30;;;11.57;;
4210;SDS011;2119;48.828;12.396;2022-08-25T17:13:28;23.93;;;12.17;;
4210;SDS011;2119;48.828;12.396;2022-08-25T17:18:29;17.83;;;11.57;;
4210;SDS011;2119;48.828;12.396;2022-08-25T17:23:29;17.10;;;12.73;;
4210;SDS011;2119;48.828;12.396;2022-08-25T17:28:29;19.30;;;12.10;;
4210;SDS011;2119;48.828;12.396;2022-08-25T17:33:30;16.13;;;12.23;;
4210;SDS011;2119;48.828;12.396;2022-08-25T17:38:31;19.10;;;12.20;;
4210;SDS011;2119;48.828;12.396;2022-08-25T17:43:33;23.00;;;12.23;;
4210;SDS011;2119;48.828;12.396;2022-08-25T17:48:34;17.30;;;11.13;;
4210;SDS011;2119;48.828;12.396;2022-08-25T17:53:35;22.80;;;12.13;;
4210;SDS011;2119;48.828;12.396;2022-08-25T17:58:35;20.23;;;12.73;;
4210;SDS011;2119;48.828;12.396;2022-08-25T18:03:36;18.47;;;12.07;;
4210;SDS011;2119;48.828;12.396;2022-08-25T18:08:36;20.83;;;12.47;;
4210;SDS011;2119;48.828;12.396;2022-08-25T18:13:37;19.03;;;12.13;;
4210;SDS011;2119;48.828;12.396;2022-08-25T18:18:37;18.03;;;12.50;;
4210;SDS011;2119;48.828;12.396;2022-08-25T18:23:38;25.77;;;13.77;;
4210;SDS011;2119;48.828;12.396;2022-08-25T18:28:38;23.10;;;12.30;;
4210;SDS011;2119;48.828;12.396;2022-08-25T18:33:39;15.33;;;12.90;;
4210;SDS011;2119;48.828;12.396;2022-08-25T18:38:41;17.33;;;12.43;;
4210;SDS011;2119;48.828;12.396;2022-08-25T18:43:59;15.40;;;12.47;;
4210;SDS011;2119;48.828;12.396;2022-08-25T18:49:00;17.53;;;12.93;;
4210;SDS011;2119;48.828;12.396;2022-08-25T18:54:00;15.03;;;12.63;;
4210;SDS011;2119;48.828;12.396;2022-08-25T18:59:00;19.17;;;12.53;;
4210;SDS011;2119;48.828;12.396;2022-08-25T19:04:01;15.87;;;13.40;;
4210;SDS011;2119;48.828;12.396;2022-08-25T19:09:01;17.43;;;13.07;;
4210;SDS011;2119;48.828;12.396;2022-08-25T19:14:02;16.60;;;12.87;;
4210;SDS011;2119;48.828;12.396;2022-08-25T19:19:03;19.50;;;12.70;;
4210;SDS011;2119;48.828;12.396;2022-08-25T19:24:05;18.30;;;12.97;;
4210;SDS011;2119;48.828;12.396;2022-08-25T19:29:07;17.33;;;12.93;;
4210;SDS011;2119;48.828;12.396;2022-08-25T19:34:09;18.13;;;12.63;;
4210;SDS011;2119;48.828;12.396;2022-08-25T19:39:10;18.67;;;11.90;;
4210;SDS011;2119;48.828;12.396;2022-08-25T19:44:11;14.90;;;11.30;;
4210;SDS011;2119;48.828;12.396;2022-08-25T19:49:16;17.07;;;12.37;;
4210;SDS011;2119;48.828;12.396;2022-08-25T19:54:21;18.93;;;11.67;;
4210;SDS011;2119;48.828;12.396;2022-08-25T19:59:23;17.30;;;12.50;;
4210;SDS011;2119;48.828;12.396;2022-08-25T20:04:24;17.93;;;12.57;;
4210;SDS011;2119;48.828;12.396;2022-08-25T20:09:24;21.60;;;14.37;;
4210;SDS011;2119;48.828;12.396;2022-08-25T20:14:25;22.13;;;14.60;;
4210;SDS011;2119;48.828;12.396;2022-08-25T20:19:25;25.80;;;13.57;;
4210;SDS011;2119;48.828;12.396;2022-08-25T20:24:26;16.03;;;14.33;;
4210;SDS011;2119;48.828;12.396;2022-08-25T20:29:45;21.57;;;13.63;;
4210;SDS011;2119;48.828;12.396;2022-08-25T20:34:46;19.83;;;13.80;;
4210;SDS011;2119;48.828;12.396;2022-08-25T20:39:46;15.25;;;13.43;;
4210;SDS011;2119;48.828;12.396;2022-08-25T20:44:46;18.20;;;14.03;;
4210;SDS011;2119;48.828;12.396;2022-08-25T20:49:47;18.73;;;13.50;;
4210;SDS011;2119;48.828;12.396;2022-08-25T20:54:47;17.20;;;13.40;;
4210;SDS011;2119;48.828;12.396;2022-08-25T20:59:48;24.83;;;14.60;;
4210;SDS011;2119;48.828;12.396;2022-08-25T21:04:48;22.73;;;14.17;;
4210;SDS011;2119;48.828;12.396;2022-08-25T21:09:48;16.08;;;13.02;;
4210;SDS011;2119;48.828;12.396;2022-08-25T21:14:49;14.83;;;13.00;;
4210;SDS011;2119;48.828;12.396;2022-08-25T21:19:50;15.37;;;12.40;;
4210;SDS011;2119;48.828;12.396;2022-08-25T21:24:51;17.47;;;13.47;;
4210;SDS011;2119;48.828;12.396;2022-08-25T21:29:51;15.13;;;13.53;;
4210;SDS011;2119;48.828;12.396;2022-08-25T21:34:54;16.47;;;14.77;;
4210;SDS011;2119;48.828;12.396;2022-08-25T21:39:55;21.07;;;15.37;;
4210;SDS011;2119;48.828;12.396;2022-08-25T21:44:55;17.90;;;14.13;;
4210;SDS011;2119;48.828;12.396;2022-08-25T21:49:56;22.20;;;15.30;;
4210;SDS011;2119;48.828;12.396;2022-08-25T21:54:56;22.23;;;14.37;;
4210;SDS011;2119;48.828;12.396;2022-08-25T21:59:56;21.63;;;15.33;;
4210;SDS011;2119;48.828;12.396;2022-08-25T22:04:57;16.53;;;14.83;;
4210;SDS011;2119;48.828;12.396;2022-08-25T22:09:57;18.80;;;14.60;;
4210;SDS011;2119;48.828;12.396;2022-08-25T22:14:57;16.77;;;14.00;;
4210;SDS011;2119;48.828;12.396;2022-08-25T22:19:58;23.07;;;15.10;;
4210;SDS011;2119;48.828;12.396;2022-08-25T22:24:58;16.93;;;13.60;;
4210;SDS011;2119;48.828;12.396;2022-08-25T22:29:58;26.73;;;15.20;;
4210;SDS011;2119;48.828;12.396;2022-08-25T22:34:59;21.00;;;15.80;;
4210;SDS011;2119;48.828;12.396;2022-08-25T22:39:59;16.00;;;13.70;;
4210;SDS011;2119;48.828;12.396;2022-08-25T22:45:01;23.63;;;14.20;;
4210;SDS011;2119;48.828;12.396;2022-08-25T22:50:01;19.50;;;14.60;;
4210;SDS011;2119;48.828;12.396;2022-08-25T22:55:03;17.73;;;14.77;;
4210;SDS011;2119;48.828;12.396;2022-08-25T23:00:04;29.90;;;15.63;;
4210;SDS011;2119;48.828;12.396;2022-08-25T23:05:04;23.60;;;15.67;;
4210;SDS011;2119;48.828;12.396;2022-08-25T23:10:06;26.13;;;15.27;;
4210;SDS011;2119;48.828;12.396;2022-08-25T23:15:08;24.23;;;16.10;;
4210;SDS011;2119;48.828;12.396;2022-08-25T23:20:08;26.00;;;15.67;;
4210;SDS011;2119;48.828;12.396;2022-08-25T23:25:38;20.10;;;16.60;;
4210;SDS011;2119;48.828;12.396;2022-08-25T23:30:39;18.83;;;15.37;;
4210;SDS011;2119;48.828;12.396;2022-08-25T23:35:40;18.27;;;15.30;;
4210;SDS011;2119;48.828;12.396;2022-08-25T23:40:41;14.93;;;13.30;;
4210;SDS011;2119;48.828;12.396;2022-08-25T23:45:42;17.83;;;15.40;;
4210;SDS011;2119;48.828;12.396;2022-08-25T23:50:44;16.07;;;14.40;;
4210;SDS011;2119;48.828;12.396;2022-08-25T23:55:46;16.30;;;14.60;;
